createdAt,value
2022-09-17T00:00:14.165Z,3.10
2022-09-17T00:01:14.174Z,2.00
2022-09-17T00:02:14.189Z,3.30
2022-09-17T00:03:14.208Z,3.70
2022-09-17T00:04:14.101Z,0.90
2022-09-17T00:05:14.111Z,1.30
2022-09-17T00:06:14.069Z,1.20
2022-09-17T00:07:14.091Z,1.30
2022-09-17T00:08:14.060Z,2.00
2022-09-17T00:09:14.050Z,2.10
2022-09-17T00:10:14.028Z,2.40
2022-09-17T00:11:14.016Z,1.80
2022-09-17T00:12:13.994Z,2.00
2022-09-17T00:13:14.009Z,1.20
2022-09-17T00:14:13.999Z,1.80
2022-09-17T00:15:13.979Z,2.20
2022-09-17T00:16:14.080Z,7.50
2022-09-17T00:17:13.972Z,2.30
2022-09-17T00:18:13.927Z,1.10
2022-09-17T00:19:13.913Z,1.90
2022-09-17T00:20:13.927Z,2.60
2022-09-17T00:21:13.898Z,1.50
2022-09-17T00:22:13.866Z,1.80
2022-09-17T00:23:13.875Z,2.50
2022-09-17T00:24:13.852Z,1.90
2022-09-17T00:25:13.872Z,3.10
2022-09-17T00:26:13.844Z,2.20
2022-09-17T00:27:13.804Z,2.50
2022-09-17T00:28:13.813Z,1.20
2022-09-17T00:29:13.811Z,1.60
2022-09-17T00:30:13.798Z,1.10
2022-09-17T00:31:13.772Z,2.80
2022-09-17T00:32:13.742Z,1.10
2022-09-17T00:33:13.722Z,2.20
2022-09-17T00:34:13.732Z,1.60
2022-09-17T00:35:13.709Z,1.50
2022-09-17T00:36:13.695Z,1.10
2022-09-17T00:37:13.690Z,2.60
2022-09-17T00:38:13.712Z,1.70
2022-09-17T00:39:13.653Z,2.40
2022-09-17T00:40:13.692Z,1.20
2022-09-17T00:41:13.649Z,2.60
2022-09-17T00:42:13.650Z,3.20
2022-09-17T00:43:13.660Z,1.70
2022-09-17T00:44:13.597Z,2.10
2022-09-17T00:45:13.568Z,2.80
2022-09-17T00:46:13.643Z,2.80
2022-09-17T00:47:13.572Z,3.30
2022-09-17T00:48:13.549Z,2.10
2022-09-17T00:49:13.529Z,3.90
2022-09-17T00:50:13.506Z,2.20
2022-09-17T00:51:13.507Z,1.00
2022-09-17T00:52:13.475Z,3.40
2022-09-17T00:53:13.549Z,2.10
2022-09-17T00:54:13.455Z,2.10
2022-09-17T00:55:13.459Z,1.20
2022-09-17T00:56:13.435Z,2.60
2022-09-17T00:57:13.445Z,1.90
2022-09-17T00:58:13.485Z,3.00
2022-09-17T00:59:13.414Z,1.70
2022-09-17T01:00:13.375Z,2.30
2022-09-17T01:01:13.526Z,2.30
2022-09-17T01:02:13.463Z,1.10
2022-09-17T01:03:13.384Z,2.20
2022-09-17T01:04:13.332Z,1.80
2022-09-17T01:05:13.402Z,1.50
2022-09-17T01:06:13.335Z,2.30
2022-09-17T01:07:13.330Z,1.90
2022-09-17T01:08:13.288Z,3.20
2022-09-17T01:09:13.291Z,1.90
2022-09-17T01:10:13.259Z,2.10
2022-09-17T01:11:13.256Z,2.70
2022-09-17T01:12:13.261Z,2.30
2022-09-17T01:13:13.220Z,1.00
2022-09-17T01:14:13.229Z,2.90
2022-09-17T01:15:13.199Z,2.20
2022-09-17T01:16:13.275Z,2.10
2022-09-17T01:17:13.193Z,3.00
2022-09-17T01:18:13.169Z,2.50
2022-09-17T01:19:13.182Z,2.20
2022-09-17T01:20:13.137Z,3.10
2022-09-17T01:21:13.179Z,1.20
2022-09-17T01:22:13.138Z,1.80
2022-09-17T01:23:13.126Z,1.80
2022-09-17T01:24:13.088Z,2.70
2022-09-17T01:25:13.057Z,3.70
2022-09-17T01:26:13.077Z,2.80
2022-09-17T01:27:13.058Z,1.80
2022-09-17T01:28:13.066Z,3.60
2022-09-17T01:29:13.043Z,3.20
2022-09-17T01:30:13.006Z,3.70
2022-09-17T01:31:13.019Z,2.50
2022-09-17T01:32:12.985Z,2.50
2022-09-17T01:33:13.003Z,1.80
2022-09-17T01:34:12.981Z,3.70
2022-09-17T01:35:12.995Z,2.30
2022-09-17T01:36:12.933Z,3.50
2022-09-17T01:37:12.920Z,2.70
2022-09-17T01:38:12.913Z,1.50
2022-09-17T01:39:12.902Z,1.80
2022-09-17T01:40:12.902Z,3.00
2022-09-17T01:41:12.864Z,3.80
2022-09-17T01:42:12.859Z,2.00
2022-09-17T01:43:12.832Z,3.40
2022-09-17T01:44:12.822Z,2.40
2022-09-17T01:45:12.827Z,2.60
2022-09-17T01:46:12.855Z,2.70
2022-09-17T01:47:12.800Z,2.70
2022-09-17T01:48:12.770Z,3.30
2022-09-17T01:49:12.750Z,3.50
2022-09-17T01:50:12.798Z,3.20
2022-09-17T01:51:12.747Z,1.70
2022-09-17T01:52:12.749Z,4.70
2022-09-17T01:53:12.699Z,1.90
2022-09-17T01:54:12.696Z,2.50
2022-09-17T01:55:12.678Z,1.90
2022-09-17T01:56:12.717Z,2.80
2022-09-17T01:57:12.700Z,3.50
2022-09-17T01:58:12.648Z,5.40
2022-09-17T01:59:12.648Z,3.10
2022-09-17T02:00:12.645Z,2.10
2022-09-17T02:01:12.652Z,2.70
2022-09-17T02:02:12.763Z,3.50
2022-09-17T02:03:12.597Z,1.80
2022-09-17T02:04:12.574Z,3.90
2022-09-17T02:05:12.576Z,2.50
2022-09-17T02:06:12.556Z,3.10
2022-09-17T02:07:12.533Z,2.20
2022-09-17T02:08:12.522Z,6.40
2022-09-17T02:09:15.336Z,4.90
2022-09-17T02:10:12.502Z,2.70
2022-09-17T02:11:12.480Z,1.10
2022-09-17T02:12:12.502Z,4.80
2022-09-17T02:13:12.462Z,4.20
2022-09-17T02:14:12.461Z,3.40
2022-09-17T02:15:12.440Z,1.80
2022-09-17T02:16:12.470Z,1.60
2022-09-17T02:17:12.411Z,4.20
2022-09-17T02:18:12.419Z,3.70
2022-09-17T02:19:12.390Z,3.50
2022-09-17T02:20:12.380Z,2.70
2022-09-17T02:21:12.369Z,3.30
2022-09-17T02:22:12.369Z,1.70
2022-09-17T02:23:12.338Z,3.40
2022-09-17T02:24:12.318Z,2.70
2022-09-17T02:25:12.308Z,3.00
2022-09-17T02:26:12.291Z,2.60
2022-09-17T02:27:12.337Z,2.50
2022-09-17T02:28:12.276Z,3.20
2022-09-17T02:29:12.257Z,3.10
2022-09-17T02:30:12.255Z,4.10
2022-09-17T02:31:12.280Z,2.30
2022-09-17T02:32:12.299Z,3.10
2022-09-17T02:33:12.248Z,2.70
2022-09-17T02:34:12.214Z,3.50
2022-09-17T02:35:12.205Z,2.80
2022-09-17T02:36:12.194Z,3.20
2022-09-17T02:37:12.145Z,2.80
2022-09-17T02:38:12.154Z,1.50
2022-09-17T02:39:12.145Z,3.10
2022-09-17T02:40:12.162Z,3.00
2022-09-17T02:41:12.100Z,5.10
2022-09-17T02:42:12.092Z,3.90
2022-09-17T02:43:12.073Z,2.70
2022-09-17T02:44:12.082Z,1.80
2022-09-17T02:45:12.083Z,3.50
2022-09-17T02:46:12.072Z,3.60
2022-09-17T02:47:12.033Z,3.10
2022-09-17T02:48:12.012Z,3.80
2022-09-17T02:49:12.000Z,4.00
2022-09-17T02:50:12.010Z,4.60
2022-09-17T02:51:11.989Z,3.30
2022-09-17T02:52:11.979Z,2.80
2022-09-17T02:53:11.940Z,2.20
2022-09-17T02:54:11.959Z,4.30
2022-09-17T02:55:11.937Z,2.20
2022-09-17T02:56:11.910Z,5.90
2022-09-17T02:57:11.907Z,3.40
2022-09-17T02:58:11.878Z,2.50
2022-09-17T02:59:11.902Z,2.90
2022-09-17T03:00:11.877Z,2.00
2022-09-17T03:01:11.951Z,4.60
2022-09-17T03:02:11.902Z,2.70
2022-09-17T03:03:11.867Z,3.40
2022-09-17T03:04:11.807Z,3.10
2022-09-17T03:05:11.795Z,2.80
2022-09-17T03:06:11.818Z,2.00
2022-09-17T03:07:11.791Z,2.90
2022-09-17T03:08:11.759Z,2.20
2022-09-17T03:09:11.735Z,3.80
2022-09-17T03:10:11.746Z,2.70
2022-09-17T03:11:11.734Z,2.40
2022-09-17T03:12:11.714Z,3.70
2022-09-17T03:13:11.701Z,3.90
2022-09-17T03:14:11.702Z,3.80
2022-09-17T03:15:11.663Z,4.20
2022-09-17T03:16:11.709Z,2.60
2022-09-17T03:17:11.632Z,2.20
2022-09-17T03:18:11.622Z,2.90
2022-09-17T03:19:11.631Z,4.80
2022-09-17T03:20:11.631Z,3.60
2022-09-17T03:21:11.581Z,3.60
2022-09-17T03:22:11.581Z,2.30
2022-09-17T03:23:11.560Z,3.10
2022-09-17T03:24:11.580Z,1.90
2022-09-17T03:25:11.539Z,1.30
2022-09-17T03:26:11.538Z,2.10
2022-09-17T03:27:11.538Z,3.00
2022-09-17T03:28:11.516Z,4.90
2022-09-17T03:29:11.489Z,2.60
2022-09-17T03:30:11.498Z,2.70
2022-09-17T03:31:11.644Z,3.70
2022-09-17T03:32:11.448Z,4.10
2022-09-17T03:33:11.435Z,5.00
2022-09-17T03:34:11.438Z,4.00
2022-09-17T03:35:11.456Z,6.00
2022-09-17T03:36:11.423Z,2.90
2022-09-17T03:37:11.405Z,2.40
2022-09-17T03:38:11.375Z,4.70
2022-09-17T03:39:11.364Z,7.20
2022-09-17T03:40:11.428Z,2.90
2022-09-17T03:41:11.359Z,3.10
2022-09-17T03:42:11.366Z,1.90
2022-09-17T03:43:11.311Z,3.30
2022-09-17T03:44:11.293Z,4.10
2022-09-17T03:45:11.311Z,4.50
2022-09-17T03:46:11.310Z,4.00
2022-09-17T03:47:11.275Z,1.80
2022-09-17T03:48:11.252Z,2.30
2022-09-17T03:49:11.232Z,2.90
2022-09-17T03:50:11.238Z,4.60
2022-09-17T03:51:11.200Z,2.80
2022-09-17T03:52:11.211Z,3.30
2022-09-17T03:53:11.181Z,2.70
2022-09-17T03:54:11.164Z,3.20
2022-09-17T03:55:11.170Z,4.00
2022-09-17T03:56:11.147Z,5.20
2022-09-17T03:57:11.170Z,4.50
2022-09-17T03:58:11.111Z,3.40
2022-09-17T03:59:11.110Z,4.40
2022-09-17T04:00:11.088Z,4.70
2022-09-17T04:01:11.322Z,1.90
2022-09-17T04:02:11.176Z,4.30
2022-09-17T04:03:11.051Z,4.60
2022-09-17T04:04:11.066Z,2.50
2022-09-17T04:05:11.059Z,3.10
2022-09-17T04:06:11.026Z,3.10
2022-09-17T04:07:11.026Z,3.60
2022-09-17T04:08:11.006Z,2.90
2022-09-17T04:09:10.979Z,4.60
2022-09-17T04:10:10.956Z,3.60
2022-09-17T04:11:10.955Z,4.00
2022-09-17T04:12:11.006Z,4.10
2022-09-17T04:13:11.044Z,4.70
2022-09-17T04:14:10.912Z,3.60
2022-09-17T04:15:10.934Z,4.00
2022-09-17T04:16:10.941Z,2.90
2022-09-17T04:17:10.904Z,2.90
2022-09-17T04:18:10.884Z,2.90
2022-09-17T04:19:10.854Z,2.80
2022-09-17T04:20:10.843Z,4.30
2022-09-17T04:21:10.846Z,3.50
2022-09-17T04:22:10.826Z,1.90
2022-09-17T04:23:10.812Z,3.20
2022-09-17T04:24:10.821Z,6.70
2022-09-17T04:25:10.788Z,5.60
2022-09-17T04:26:10.770Z,5.10
2022-09-17T04:27:10.760Z,3.40
2022-09-17T04:28:10.730Z,4.30
2022-09-17T04:29:10.739Z,2.30
2022-09-17T04:30:10.699Z,2.40
2022-09-17T04:31:10.781Z,3.30
2022-09-17T04:32:10.720Z,3.50
2022-09-17T04:33:10.689Z,5.80
2022-09-17T04:34:10.706Z,3.00
2022-09-17T04:35:10.647Z,5.30
2022-09-17T04:36:10.657Z,4.70
2022-09-17T04:37:10.637Z,4.70
2022-09-17T04:38:10.637Z,3.10
2022-09-17T04:39:10.607Z,5.00
2022-09-17T04:40:10.647Z,4.30
2022-09-17T04:41:10.580Z,3.80
2022-09-17T04:42:10.556Z,3.60
2022-09-17T04:43:10.580Z,4.40
2022-09-17T04:44:10.557Z,3.50
2022-09-17T04:45:10.532Z,3.10
2022-09-17T04:46:10.576Z,2.50
2022-09-17T04:47:10.483Z,3.40
2022-09-17T04:48:10.484Z,5.20
2022-09-17T04:49:10.464Z,4.70
2022-09-17T04:50:10.464Z,3.20
2022-09-17T04:51:10.466Z,6.40
2022-09-17T04:52:10.443Z,3.90
2022-09-17T04:53:10.413Z,3.50
2022-09-17T04:54:10.401Z,4.90
2022-09-17T04:55:10.419Z,3.80
2022-09-17T04:56:10.371Z,3.10
2022-09-17T04:57:10.371Z,3.50
2022-09-17T04:58:10.381Z,4.00
2022-09-17T04:59:10.345Z,3.50
2022-09-17T05:00:10.352Z,2.40
2022-09-17T05:01:10.417Z,4.00
2022-09-17T05:02:10.397Z,6.90
2022-09-17T05:03:10.289Z,4.10
2022-09-17T05:04:10.270Z,2.30
2022-09-17T05:05:10.256Z,3.70
2022-09-17T05:06:10.278Z,3.20
2022-09-17T05:07:13.389Z,5.50
2022-09-17T05:08:10.248Z,2.90
2022-09-17T05:09:10.277Z,2.20
2022-09-17T05:10:10.206Z,3.40
2022-09-17T05:11:10.205Z,3.60
2022-09-17T05:12:10.169Z,3.80
2022-09-17T05:13:10.153Z,3.90
2022-09-17T05:14:10.195Z,3.80
2022-09-17T05:16:27.878Z,2.80
2022-09-17T05:17:27.809Z,3.10
2022-09-17T05:18:27.812Z,5.60
2022-09-17T05:19:27.792Z,3.90
2022-09-17T05:20:27.771Z,3.20
2022-09-17T05:21:27.759Z,3.60
2022-09-17T05:22:27.780Z,3.60
2022-09-17T05:23:27.728Z,6.00
2022-09-17T05:24:29.890Z,2.50
2022-09-17T05:25:28.298Z,3.90
2022-09-17T05:26:27.688Z,4.80
2022-09-17T05:27:32.059Z,3.30
2022-09-17T05:28:32.047Z,4.30
2022-09-17T05:29:39.636Z,3.70
2022-09-17T05:30:27.702Z,5.00
2022-09-17T05:31:27.701Z,7.30
2022-09-17T05:32:27.995Z,4.20
2022-09-17T05:33:28.205Z,4.30
2022-09-17T05:34:27.945Z,6.80
2022-09-17T05:35:27.637Z,4.10
2022-09-17T05:36:27.825Z,3.30
2022-09-17T05:37:29.995Z,2.40
2022-09-17T05:38:27.614Z,5.00
2022-09-17T05:39:27.624Z,4.00
2022-09-17T05:40:27.985Z,2.70
2022-09-17T05:41:27.653Z,2.40
2022-09-17T05:42:27.795Z,6.00
2022-09-17T05:43:27.732Z,5.00
2022-09-17T05:44:27.758Z,4.70
2022-09-17T05:45:27.608Z,2.90
2022-09-17T05:46:27.738Z,3.00
2022-09-17T05:47:27.916Z,6.90
2022-09-17T05:48:27.568Z,5.20
2022-09-17T05:49:27.380Z,2.90
2022-09-17T05:50:27.392Z,5.80
2022-09-17T05:51:27.369Z,4.00
2022-09-17T05:52:27.379Z,3.50
2022-09-17T05:53:27.379Z,5.50
2022-09-17T05:54:27.359Z,5.70
2022-09-17T05:55:27.308Z,8.20
2022-09-17T05:56:27.327Z,6.30
2022-09-17T05:57:27.288Z,4.70
2022-09-17T05:58:27.277Z,3.60
2022-09-17T05:59:27.277Z,5.20
2022-09-17T06:00:27.256Z,5.70
2022-09-17T06:01:27.336Z,4.80
2022-09-17T06:02:27.227Z,4.50
2022-09-17T06:03:27.195Z,3.70
2022-09-17T06:04:29.574Z,4.40
2022-09-17T06:05:27.173Z,4.60
2022-09-17T06:06:27.176Z,6.80
2022-09-17T06:07:27.153Z,5.20
2022-09-17T06:08:27.173Z,4.40
2022-09-17T06:09:27.122Z,4.60
2022-09-17T06:10:27.155Z,4.10
2022-09-17T06:11:27.133Z,4.00
2022-09-17T06:12:27.166Z,4.20
2022-09-17T06:13:27.075Z,7.90
2022-09-17T06:14:27.102Z,5.80
2022-09-17T06:15:27.504Z,4.90
2022-09-17T06:16:27.332Z,3.70
2022-09-17T06:17:27.393Z,4.40
2022-09-17T06:18:27.161Z,4.30
2022-09-17T06:19:27.308Z,6.20
2022-09-17T06:20:27.053Z,5.00
2022-09-17T06:21:26.999Z,5.50
2022-09-17T06:22:26.981Z,3.50
2022-09-17T06:23:26.979Z,5.30
2022-09-17T06:24:26.919Z,4.90
2022-09-17T06:25:26.938Z,6.60
2022-09-17T06:26:26.897Z,4.70
2022-09-17T06:27:26.889Z,5.10
2022-09-17T06:28:41.212Z,7.60
2022-09-17T06:29:27.895Z,5.00
2022-09-17T06:30:26.923Z,6.40
2022-09-17T06:31:26.927Z,10.00
2022-09-17T06:32:26.834Z,5.60
2022-09-17T06:33:26.812Z,6.60
2022-09-17T06:34:26.822Z,6.60
2022-09-17T06:35:26.803Z,8.90
2022-09-17T06:36:26.789Z,5.90
2022-09-17T06:37:26.762Z,6.80
2022-09-17T06:38:26.791Z,4.70
2022-09-17T06:39:26.739Z,6.60
2022-09-17T06:40:26.873Z,6.40
2022-09-17T06:41:26.708Z,4.50
2022-09-17T06:42:26.689Z,5.50
2022-09-17T06:43:26.772Z,4.60
2022-09-17T06:44:26.659Z,5.90
2022-09-17T06:45:26.681Z,6.20
2022-09-17T06:46:26.690Z,6.40
2022-09-17T06:47:26.639Z,7.80
2022-09-17T06:48:26.656Z,6.40
2022-09-17T06:49:26.628Z,7.50
2022-09-17T06:50:26.599Z,5.10
2022-09-17T06:51:26.607Z,6.20
2022-09-17T06:52:26.604Z,7.50
2022-09-17T06:53:26.596Z,7.30
2022-09-17T06:54:26.537Z,6.20
2022-09-17T06:55:26.531Z,5.80
2022-09-17T06:56:26.527Z,7.10
2022-09-17T06:57:26.536Z,8.30
2022-09-17T06:58:26.525Z,6.10
2022-09-17T06:59:26.475Z,7.10
2022-09-17T07:00:26.485Z,6.20
2022-09-17T07:01:26.523Z,5.40
2022-09-17T07:02:26.497Z,8.30
2022-09-17T07:03:26.459Z,7.10
2022-09-17T07:04:26.422Z,6.30
2022-09-17T07:05:26.437Z,6.20
2022-09-17T07:06:26.395Z,6.90
2022-09-17T07:07:26.473Z,6.00
2022-09-17T07:08:26.370Z,8.10
2022-09-17T07:09:26.393Z,5.40
2022-09-17T07:10:26.348Z,5.40
2022-09-17T07:11:26.342Z,6.70
2022-09-17T07:12:26.420Z,6.40
2022-09-17T07:13:36.859Z,6.70
2022-09-17T07:14:26.273Z,9.60
2022-09-17T07:15:26.303Z,4.90
2022-09-17T07:16:26.297Z,5.40
2022-09-17T07:17:26.272Z,4.90
2022-09-17T07:18:26.232Z,6.50
2022-09-17T07:19:26.217Z,7.40
2022-09-17T07:20:26.207Z,7.30
2022-09-17T07:21:26.221Z,6.90
2022-09-17T07:22:26.178Z,7.90
2022-09-17T07:23:26.173Z,5.60
2022-09-17T07:24:30.666Z,5.60
2022-09-17T07:25:27.170Z,6.90
2022-09-17T07:26:26.129Z,7.10
2022-09-17T07:27:26.121Z,8.50
2022-09-17T07:28:26.110Z,7.60
2022-09-17T07:29:26.118Z,8.00
2022-09-17T07:30:26.099Z,8.90
2022-09-17T07:31:26.149Z,6.80
2022-09-17T07:32:26.050Z,10.00
2022-09-17T07:33:26.050Z,7.60
2022-09-17T07:34:26.034Z,6.90
2022-09-17T07:35:26.016Z,5.90
2022-09-17T07:36:26.016Z,8.40
2022-09-17T07:37:25.998Z,7.60
2022-09-17T07:38:26.004Z,7.20
2022-09-17T07:39:25.988Z,5.00
2022-09-17T07:40:25.995Z,7.10
2022-09-17T07:41:25.954Z,8.10
2022-09-17T07:42:25.932Z,9.90
2022-09-17T07:43:25.933Z,10.90
2022-09-17T07:44:25.941Z,7.10
2022-09-17T07:45:25.893Z,5.50
2022-09-17T07:46:25.934Z,10.30
2022-09-17T07:47:25.923Z,7.10
2022-09-17T07:48:25.842Z,5.40
2022-09-17T07:49:25.968Z,7.70
2022-09-17T07:50:25.841Z,7.20
2022-09-17T07:51:25.822Z,5.80
2022-09-17T07:52:25.821Z,8.80
2022-09-17T07:53:25.792Z,7.90
2022-09-17T07:54:25.797Z,6.00
2022-09-17T07:55:25.750Z,8.10
2022-09-17T07:56:25.747Z,9.10
2022-09-17T07:57:25.787Z,4.60
2022-09-17T07:58:25.714Z,6.30
2022-09-17T07:59:25.737Z,6.90
2022-09-17T08:00:25.682Z,7.70
2022-09-17T08:01:27.997Z,6.50
2022-09-17T08:02:26.290Z,6.70
2022-09-17T08:03:29.670Z,8.30
2022-09-17T08:04:38.571Z,7.60
2022-09-17T08:05:40.793Z,8.80
2022-09-17T08:06:29.229Z,7.30
2022-09-17T08:07:36.379Z,8.60
2022-09-17T08:08:25.593Z,5.70
2022-09-17T08:09:40.970Z,6.80
2022-09-17T08:10:25.601Z,5.90
2022-09-17T08:11:51.838Z,7.30
2022-09-17T08:13:32.703Z,6.40
2022-09-17T08:14:42.177Z,7.10
2022-09-17T08:15:32.625Z,8.20
2022-09-17T08:16:32.654Z,7.80
2022-09-17T08:17:32.595Z,8.70
2022-09-17T08:18:32.578Z,7.50
2022-09-17T08:19:32.574Z,6.80
2022-09-17T08:20:32.568Z,7.90
2022-09-17T08:21:32.534Z,5.10
2022-09-17T08:22:32.563Z,4.10
2022-09-17T08:23:32.506Z,9.00
2022-09-17T08:24:32.531Z,5.40
2022-09-17T08:25:32.524Z,6.80
2022-09-17T08:26:32.538Z,7.10
2022-09-17T08:27:37.398Z,8.70
2022-09-17T08:28:33.673Z,4.60
2022-09-17T08:29:35.328Z,7.00
2022-09-17T08:30:34.014Z,7.90
2022-09-17T08:31:42.325Z,9.20
2022-09-17T08:32:32.439Z,6.50
2022-09-17T08:33:44.358Z,7.90
2022-09-17T08:34:32.415Z,6.50
2022-09-17T08:35:54.402Z,6.60
2022-09-17T08:36:58.553Z,7.30
2022-09-17T08:37:52.548Z,6.50
2022-09-17T08:39:46.292Z,5.10
2022-09-17T08:40:46.282Z,5.50
2022-09-17T08:41:57.108Z,5.50
2022-09-17T08:42:58.731Z,7.00
2022-09-17T08:43:46.224Z,4.50
2022-09-17T08:44:46.224Z,6.60
2022-09-17T08:45:58.168Z,4.00
2022-09-17T08:46:46.274Z,7.20
2022-09-17T08:48:04.493Z,8.30
2022-09-17T08:48:55.999Z,3.80
2022-09-17T08:49:57.021Z,5.90
2022-09-17T08:50:46.146Z,5.00
2022-09-17T08:51:58.060Z,3.90
2022-09-17T08:53:03.387Z,5.20
2022-09-17T08:53:56.984Z,7.10
2022-09-17T08:56:07.594Z,5.80
2022-09-17T08:58:32.698Z,7.30
2022-09-17T09:00:39.224Z,13.60
2022-09-17T09:02:44.181Z,6.50
2022-09-17T09:03:44.151Z,6.30
2022-09-17T09:04:54.736Z,7.30
2022-09-17T09:05:59.931Z,5.10
2022-09-17T09:06:44.102Z,5.30
2022-09-17T09:07:44.117Z,7.40
2022-09-17T09:08:44.099Z,6.20
2022-09-17T09:09:54.659Z,8.60
2022-09-17T09:10:44.032Z,9.00
2022-09-17T09:11:57.235Z,8.60
2022-09-17T09:12:44.024Z,5.50
2022-09-17T09:13:44.006Z,5.80
2022-09-17T09:14:43.985Z,8.60
2022-09-17T09:15:44.082Z,5.90
2022-09-17T09:16:55.243Z,5.10
2022-09-17T09:17:59.440Z,6.80
2022-09-17T09:18:56.908Z,6.80
2022-09-17T09:19:43.953Z,5.80
2022-09-17T09:20:43.918Z,6.10
2022-09-17T09:21:55.500Z,6.40
2022-09-17T09:22:43.892Z,7.60
2022-09-17T09:23:43.879Z,6.80
2022-09-17T09:24:43.847Z,5.00
2022-09-17T09:25:43.869Z,5.50
2022-09-17T09:28:02.086Z,6.20
2022-09-17T09:29:01.988Z,6.10
2022-09-17T09:30:00.366Z,7.50
2022-09-17T09:31:00.372Z,7.30
2022-09-17T09:34:16.240Z,5.80
2022-09-17T09:36:24.655Z,5.70
2022-09-17T09:37:22.538Z,5.30
2022-09-17T09:38:22.679Z,6.70
2022-09-17T09:39:22.795Z,6.90
2022-09-17T09:40:22.600Z,4.90
2022-09-17T09:41:22.784Z,7.40
2022-09-17T09:42:22.602Z,7.80
2022-09-17T09:43:22.783Z,8.40
2022-09-17T09:44:22.584Z,7.20
2022-09-17T09:45:22.412Z,5.30
2022-09-17T09:46:22.535Z,8.60
2022-09-17T09:47:23.120Z,7.40
2022-09-17T09:48:37.552Z,5.50
2022-09-17T09:49:23.105Z,6.80
2022-09-17T09:50:48.419Z,5.90
2022-09-17T09:51:24.484Z,7.10
2022-09-17T09:52:24.040Z,5.20
2022-09-17T09:53:32.845Z,6.80
2022-09-17T09:54:22.274Z,4.30
2022-09-17T09:55:47.921Z,5.80
2022-09-17T09:56:49.904Z,5.60
2022-09-17T09:57:22.281Z,6.50
2022-09-17T09:58:22.181Z,5.20
2022-09-17T09:59:33.956Z,7.50
2022-09-17T10:00:22.176Z,9.00
2022-09-17T10:04:37.140Z,5.60
2022-09-17T10:06:01.258Z,6.70
2022-09-17T10:06:37.438Z,4.10
2022-09-17T10:08:39.024Z,5.00
2022-09-17T10:09:39.059Z,4.20
2022-09-17T10:10:38.985Z,6.60
2022-09-17T10:11:38.985Z,6.20
2022-09-17T10:12:38.984Z,5.90
2022-09-17T10:13:38.925Z,6.50
2022-09-17T10:14:38.904Z,6.60
2022-09-17T10:15:38.932Z,6.40
2022-09-17T10:16:58.692Z,5.00
2022-09-17T10:17:38.913Z,6.60
2022-09-17T10:18:38.880Z,6.10
2022-09-17T10:19:38.853Z,5.30
2022-09-17T10:20:38.871Z,7.00
2022-09-17T10:21:38.829Z,4.90
2022-09-17T10:22:50.853Z,6.40
2022-09-17T10:23:38.790Z,8.00
2022-09-17T10:24:38.819Z,3.60
2022-09-17T10:25:54.275Z,7.40
2022-09-17T10:26:38.763Z,6.80
2022-09-17T10:27:38.752Z,8.00
2022-09-17T10:28:38.754Z,5.40
2022-09-17T10:31:41.186Z,5.40
2022-09-17T10:32:41.134Z,4.50
2022-09-17T10:33:41.144Z,8.10
2022-09-17T10:34:41.134Z,4.40
2022-09-17T10:35:41.093Z,5.40
2022-09-17T10:36:41.125Z,4.70
2022-09-17T10:37:41.072Z,6.30
2022-09-17T10:38:41.092Z,6.70
2022-09-17T10:39:41.092Z,7.90
2022-09-17T10:40:41.129Z,7.90
2022-09-17T10:41:52.739Z,4.80
2022-09-17T10:42:41.517Z,3.00
2022-09-17T10:44:06.173Z,4.40
2022-09-17T10:44:40.998Z,2.60
2022-09-17T10:45:50.857Z,2.50
2022-09-17T10:46:40.985Z,3.70
2022-09-17T10:47:51.023Z,3.80
2022-09-17T10:48:40.932Z,4.10
2022-09-17T10:51:22.930Z,1.90
2022-09-17T10:52:22.897Z,2.00
2022-09-17T10:54:58.787Z,1.70
2022-09-17T10:55:58.759Z,1.70
2022-09-17T10:56:58.719Z,2.20
2022-09-17T10:58:09.313Z,2.20
2022-09-17T10:58:58.857Z,3.10
2022-09-17T10:59:58.714Z,2.00
2022-09-17T11:01:14.949Z,3.50
2022-09-17T11:02:09.820Z,1.20
2022-09-17T11:02:58.723Z,5.90
2022-09-17T11:03:58.662Z,4.30
2022-09-17T11:05:18.942Z,2.50
2022-09-17T11:06:14.742Z,3.00
2022-09-17T11:07:21.293Z,4.20
2022-09-17T11:07:59.202Z,2.90
2022-09-17T11:09:10.847Z,4.80
2022-09-17T11:10:09.270Z,4.40
2022-09-17T11:10:59.835Z,5.60
2022-09-17T11:12:02.854Z,5.70
2022-09-17T11:12:58.638Z,4.30
2022-09-17T11:13:59.017Z,3.40
2022-09-17T11:14:59.719Z,4.30
2022-09-17T11:15:58.618Z,2.80
2022-09-17T11:16:58.627Z,3.90
2022-09-17T11:17:58.654Z,4.70
2022-09-17T11:18:58.521Z,6.90
2022-09-17T11:19:58.458Z,4.30
2022-09-17T11:20:58.600Z,4.60
2022-09-17T11:21:58.432Z,4.90
2022-09-17T11:22:59.142Z,6.30
2022-09-17T11:23:58.450Z,6.40
2022-09-17T11:24:58.508Z,6.50
2022-09-17T11:26:00.626Z,5.30
2022-09-17T11:26:58.372Z,4.80
2022-09-17T11:27:58.383Z,5.50
2022-09-17T11:28:58.412Z,4.10
2022-09-17T11:29:58.312Z,5.80
2022-09-17T11:30:58.415Z,4.60
2022-09-17T11:31:58.361Z,5.20
2022-09-17T11:32:58.915Z,3.60
2022-09-17T11:33:58.293Z,5.10
2022-09-17T11:34:58.241Z,5.80
2022-09-17T11:35:58.241Z,6.40
2022-09-17T11:36:58.283Z,7.00
2022-09-17T11:38:00.090Z,4.30
2022-09-17T11:38:58.225Z,6.10
2022-09-17T11:39:58.241Z,4.20
2022-09-17T11:40:58.297Z,7.00
2022-09-17T11:41:58.180Z,6.40
2022-09-17T11:42:58.212Z,6.00
2022-09-17T11:43:58.242Z,7.70
2022-09-17T11:44:58.688Z,4.50
2022-09-17T11:45:58.213Z,5.70
2022-09-17T11:46:58.216Z,5.90
2022-09-17T11:47:58.337Z,4.40
2022-09-17T11:48:58.165Z,5.50
2022-09-17T11:49:58.125Z,4.00
2022-09-17T11:50:58.244Z,6.70
2022-09-17T11:51:58.058Z,6.50
2022-09-17T11:52:58.118Z,5.00
2022-09-17T11:53:58.293Z,4.10
2022-09-17T11:54:57.987Z,4.50
2022-09-17T11:55:58.047Z,3.90
2022-09-17T11:56:57.956Z,4.50
2022-09-17T11:57:57.955Z,4.10
2022-09-17T11:58:57.954Z,4.80
2022-09-17T12:00:03.698Z,4.30
2022-09-17T12:00:58.985Z,8.40
2022-09-17T12:01:58.086Z,4.60
2022-09-17T12:02:58.001Z,3.20
2022-09-17T12:04:08.760Z,6.50
2022-09-17T12:04:57.859Z,4.10
2022-09-17T12:05:57.846Z,3.90
2022-09-17T12:06:57.817Z,4.80
2022-09-17T12:07:57.835Z,3.80
2022-09-17T12:08:57.789Z,4.90
2022-09-17T12:09:57.788Z,6.40
2022-09-17T12:10:57.805Z,6.40
2022-09-17T12:11:57.806Z,2.90
2022-09-17T12:12:57.745Z,4.30
2022-09-17T12:13:57.832Z,5.40
2022-09-17T12:14:57.736Z,4.80
2022-09-17T12:15:57.777Z,3.40
2022-09-17T12:16:57.704Z,3.80
2022-09-17T12:18:20.600Z,3.50
2022-09-17T12:18:58.715Z,3.10
2022-09-17T12:19:57.643Z,6.00
2022-09-17T12:20:57.642Z,5.80
2022-09-17T12:21:57.631Z,3.40
2022-09-17T12:22:57.603Z,3.70
2022-09-17T12:23:57.640Z,3.10
2022-09-17T12:24:57.581Z,3.30
2022-09-17T12:25:57.593Z,3.80
2022-09-17T12:26:57.561Z,2.80
2022-09-17T12:27:57.552Z,2.40
2022-09-17T12:28:57.533Z,2.10
2022-09-17T12:30:00.415Z,3.30
2022-09-17T12:30:57.547Z,3.50
2022-09-17T12:31:57.510Z,1.80
2022-09-17T12:32:57.531Z,2.30
2022-09-17T12:33:57.496Z,3.00
2022-09-17T12:34:57.469Z,2.20
2022-09-17T12:36:04.444Z,2.70
2022-09-17T12:36:58.427Z,1.10
2022-09-17T12:37:57.424Z,2.90
2022-09-17T12:39:02.096Z,2.40
2022-09-17T12:39:58.430Z,3.10
2022-09-17T12:40:57.423Z,2.00
2022-09-17T12:41:57.374Z,1.50
2022-09-17T12:42:57.366Z,1.80
2022-09-17T12:43:57.363Z,2.10
2022-09-17T12:44:57.357Z,2.80
2022-09-17T12:45:57.347Z,3.60
2022-09-17T12:46:57.385Z,2.40
2022-09-17T12:48:12.038Z,1.30
2022-09-17T12:48:57.317Z,3.30
2022-09-17T12:49:57.267Z,2.50
2022-09-17T12:50:57.246Z,3.60
2022-09-17T12:51:57.226Z,2.50
2022-09-17T12:52:57.226Z,2.60
2022-09-17T12:53:57.260Z,2.00
2022-09-17T12:54:57.206Z,2.20
2022-09-17T12:55:57.195Z,1.60
2022-09-17T12:56:57.191Z,2.80
2022-09-17T12:57:57.174Z,2.20
2022-09-17T12:58:57.146Z,3.30
2022-09-17T12:59:57.123Z,2.40
2022-09-17T13:00:57.256Z,3.60
2022-09-17T13:01:57.122Z,5.10
2022-09-17T13:02:57.132Z,2.00
2022-09-17T13:03:57.075Z,4.10
2022-09-17T13:05:01.547Z,2.50
2022-09-17T13:05:58.062Z,2.00
2022-09-17T13:06:57.062Z,3.70
2022-09-17T13:08:13.947Z,2.70
2022-09-17T13:08:57.020Z,3.90
2022-09-17T13:09:57.032Z,3.40
2022-09-17T13:10:57.037Z,1.40
2022-09-17T13:11:56.977Z,0.90
2022-09-17T13:12:57.019Z,2.70
2022-09-17T13:13:56.948Z,1.50
2022-09-17T13:14:56.956Z,2.60
2022-09-17T13:15:56.961Z,3.20
2022-09-17T13:16:56.927Z,3.40
2022-09-17T13:18:20.365Z,3.20
2022-09-17T13:19:16.480Z,3.50
2022-09-17T13:19:57.886Z,2.30
2022-09-17T13:20:56.866Z,2.00
2022-09-17T13:21:56.856Z,2.30
2022-09-17T13:22:56.847Z,2.30
2022-09-17T13:23:56.816Z,2.10
2022-09-17T13:24:56.825Z,4.10
2022-09-17T13:25:56.795Z,2.50
2022-09-17T13:26:56.828Z,2.00
2022-09-17T13:27:56.775Z,1.30
2022-09-17T13:28:56.775Z,1.80
2022-09-17T13:29:56.762Z,3.70
2022-09-17T13:30:56.745Z,3.10
2022-09-17T13:31:56.732Z,2.80
2022-09-17T13:32:56.723Z,2.50
2022-09-17T13:33:56.711Z,2.40
2022-09-17T13:34:56.692Z,3.80
2022-09-17T13:35:56.687Z,1.90
2022-09-17T13:36:56.690Z,2.30
2022-09-17T13:37:56.651Z,2.50
2022-09-17T13:38:56.652Z,2.10
2022-09-17T13:39:56.648Z,3.60
2022-09-17T13:40:56.754Z,1.80